Time;durP1;ratioP1;P1;durP2;ratioP2;P2;SDS_P1;SDS_P2;PMS_P1;PMS_P2;Temp;Humidity;BMP_temperature;BMP_pressure;BME280_temperature;BME280_humidity;BME280_pressure;Samples;Min_cycle;Max_cycle;Signal;HPM_P1;HPM_P2
2022/04/04 00:01:16;;;;;;;;;;;5.10;77.20;;;;;;5056522;28;19945;-68
2022/04/04 00:03:41;;;;;;;;;;;5.10;77.30;;;;;;5060040;28;19917;-68
2022/04/04 00:06:07;;;;;;;;;;;5.10;77.40;;;;;;5060794;28;19931;-68
2022/04/04 00:08:33;;;;;;;;;;;5.10;77.40;;;;;;5055002;28;19982;-68
2022/04/04 00:10:59;;;;;;;;;;;5.10;77.50;;;;;;5058506;28;19916;-68
2022/04/04 00:13:26;;;;;;;;;;;5.10;77.50;;;;;;5045298;28;19913;-68
2022/04/04 00:15:51;;;;;;;;;;;5.10;77.20;;;;;;5056999;28;19921;-68
2022/04/04 00:18:17;;;;;;;;;;;5.10;77.60;;;;;;5056599;28;19912;-68
2022/04/04 00:20:42;;;;;;;;;;;5.10;77.50;;;;;;5058794;28;19920;-68
2022/04/04 00:23:12;;;;;;;;;;;5.10;77.70;;;;;;5062280;28;19920;-68
2022/04/04 00:25:38;;;;;;;;;;;5.10;77.90;;;;;;5053112;28;19909;-68
2022/04/04 00:28:03;;;;;;;;;;;5.10;77.90;;;;;;5055691;28;19955;-68
2022/04/04 00:30:29;;;;;;;;;;;5.10;77.90;;;;;;5061863;28;20460;-68
2022/04/04 00:32:54;;;;;;;;;;;5.10;77.90;;;;;;5050144;28;20404;-68
2022/04/04 00:35:20;;;;;;;;;;;5.00;77.90;;;;;;5056707;28;19912;-68
2022/04/04 00:37:45;;;;;;;;;;;5.10;77.90;;;;;;5059924;28;20485;-68
2022/04/04 00:40:11;;;;;;;;;;;5.10;77.80;;;;;;5059958;28;19986;-68
2022/04/04 00:42:38;;;;;;;;;;;5.00;77.70;;;;;;5055595;28;20334;-68
2022/04/04 00:45:04;;;;;;;;;;;5.00;77.80;;;;;;5058717;28;20589;-68
2022/04/04 00:47:29;;;;;;;;;;;5.00;77.70;;;;;;5059846;28;19916;-68
2022/04/04 00:49:56;;;;;;;;;;;5.00;77.80;;;;;;5039636;28;19920;-68
2022/04/04 00:52:21;;;;;;;;;;;5.00;77.80;;;;;;5054759;28;19924;-68
2022/04/04 00:54:47;;;;;;;;;;;5.00;77.80;;;;;;5058306;28;19913;-68
2022/04/04 00:57:13;;;;;;;;;;;5.00;77.80;;;;;;5058187;28;20383;-68
2022/04/04 00:59:39;;;;;;;;;;;5.00;77.80;;;;;;5036837;28;19924;-68
2022/04/04 01:02:04;;;;;;;;;;;4.90;77.80;;;;;;5057099;28;19908;-68
2022/04/04 01:04:30;;;;;;;;;;;5.00;77.90;;;;;;5060174;28;19908;-68
2022/04/04 01:06:55;;;;;;;;;;;4.90;77.80;;;;;;5036813;28;19920;-68
2022/04/04 01:09:21;;;;;;;;;;;4.90;77.80;;;;;;5054177;28;19948;-68
2022/04/04 01:12:06;;;;;;;;;;;4.90;77.80;;;;;;5057851;28;19916;-68
2022/04/04 01:14:34;;;;;;;;;;;4.90;77.70;;;;;;5062410;28;20288;-68
2022/04/04 01:16:59;;;;;;;;;;;4.90;77.80;;;;;;5053384;28;19909;-68
2022/04/04 01:19:25;;;;;;;;;;;4.90;77.70;;;;;;5057450;28;19918;-68
2022/04/04 01:21:50;;;;;;;;;;;4.90;77.80;;;;;;5060498;28;19916;-68
2022/04/04 01:24:20;;;;;;;;;;;4.90;77.80;;;;;;5031835;28;20560;-68
2022/04/04 01:26:46;;;;;;;;;;;4.90;77.70;;;;;;5041468;28;20391;-68
2022/04/04 01:29:11;;;;;;;;;;;4.90;77.70;;;;;;5060366;28;19916;-68
2022/04/04 01:31:37;;;;;;;;;;;4.90;77.80;;;;;;5053980;28;19939;-68
2022/04/04 01:34:02;;;;;;;;;;;4.90;77.80;;;;;;5053397;28;19912;-68
2022/04/04 01:36:28;;;;;;;;;;;4.90;77.90;;;;;;5055351;28;20461;-68
2022/04/04 01:38:53;;;;;;;;;;;4.80;77.70;;;;;;5040909;28;19924;-68
2022/04/04 01:41:19;;;;;;;;;;;4.90;77.80;;;;;;5050591;28;19912;-68
2022/04/04 01:43:44;;;;;;;;;;;4.80;77.80;;;;;;5043705;28;19996;-68
2022/04/04 01:46:25;;;;;;;;;;;4.80;77.70;;;;;;5058341;28;20023;-68
2022/04/04 01:48:51;;;;;;;;;;;4.80;77.80;;;;;;5061439;28;19991;-68
2022/04/04 01:51:16;;;;;;;;;;;4.80;77.80;;;;;;5052558;28;19912;-68
2022/04/04 01:53:42;;;;;;;;;;;4.80;77.70;;;;;;5056475;28;19909;-68
2022/04/04 01:56:08;;;;;;;;;;;4.80;77.80;;;;;;5060615;28;20568;-68
2022/04/04 01:58:33;;;;;;;;;;;4.80;77.90;;;;;;5050313;28;19924;-68
2022/04/04 02:01:01;;;;;;;;;;;4.80;78.50;;;;;;5048050;28;19913;-68
2022/04/04 02:03:28;;;;;;;;;;;4.80;77.80;;;;;;5061672;28;20065;-68
2022/04/04 02:05:54;;;;;;;;;;;4.80;77.90;;;;;;5054999;28;19965;-68
2022/04/04 02:08:19;;;;;;;;;;;4.80;77.90;;;;;;5053162;28;19909;-68
2022/04/04 02:10:45;;;;;;;;;;;4.80;77.90;;;;;;5058428;28;20400;-68
2022/04/04 02:13:10;;;;;;;;;;;4.80;78.00;;;;;;5062769;28;20080;-68
2022/04/04 02:15:36;;;;;;;;;;;4.70;78.00;;;;;;5049522;28;20640;-69
2022/04/04 02:18:02;;;;;;;;;;;4.70;77.90;;;;;;5056803;28;19935;-68
2022/04/04 02:20:27;;;;;;;;;;;4.70;77.90;;;;;;5064186;28;19969;-68
2022/04/04 02:22:53;;;;;;;;;;;4.70;78.00;;;;;;5059227;28;19958;-68
2022/04/04 02:25:18;;;;;;;;;;;4.70;77.90;;;;;;5055915;28;20337;-68
2022/04/04 02:27:44;;;;;;;;;;;4.70;77.90;;;;;;5056547;28;20564;-68
2022/04/04 02:30:10;;;;;;;;;;;4.70;77.90;;;;;;5061436;28;20030;-68
2022/04/04 02:32:36;;;;;;;;;;;4.70;78.00;;;;;;5044017;28;19920;-68
2022/04/04 02:35:01;;;;;;;;;;;4.70;78.00;;;;;;5046912;28;19921;-68
2022/04/04 02:37:27;;;;;;;;;;;4.70;77.90;;;;;;5059286;28;19962;-68
2022/04/04 02:39:52;;;;;;;;;;;4.70;78.00;;;;;;5060592;28;19913;-68
2022/04/04 02:42:18;;;;;;;;;;;4.70;77.90;;;;;;5055105;28;20006;-68
2022/04/04 02:44:44;;;;;;;;;;;4.70;78.50;;;;;;5047885;28;19916;-68
2022/04/04 02:47:09;;;;;;;;;;;4.70;77.90;;;;;;5060846;28;19909;-68
2022/04/04 02:49:34;;;;;;;;;;;4.70;77.90;;;;;;5053002;28;19913;-68
2022/04/04 02:52:00;;;;;;;;;;;4.70;78.00;;;;;;5055370;28;19913;-68
2022/04/04 02:54:25;;;;;;;;;;;4.60;77.90;;;;;;5044556;28;19913;-68
2022/04/04 02:56:51;;;;;;;;;;;4.70;77.80;;;;;;5056368;28;19928;-68
2022/04/04 02:59:16;;;;;;;;;;;4.70;78.00;;;;;;5053870;28;19969;-68
2022/04/04 03:01:48;;;;;;;;;;;4.70;77.80;;;;;;5060202;28;19908;-68
2022/04/04 03:04:14;;;;;;;;;;;4.60;77.80;;;;;;5056191;28;19913;-68
2022/04/04 03:06:39;;;;;;;;;;;4.60;78.00;;;;;;5049252;28;19919;-68
2022/04/04 03:09:05;;;;;;;;;;;4.60;77.70;;;;;;5038556;28;19913;-68
2022/04/04 03:11:30;;;;;;;;;;;4.60;77.90;;;;;;5057171;28;19920;-68
2022/04/04 03:13:56;;;;;;;;;;;4.60;78.10;;;;;;5056494;28;20032;-68
2022/04/04 03:16:21;;;;;;;;;;;4.50;78.10;;;;;;5054330;28;19913;-68
2022/04/04 03:18:47;;;;;;;;;;;4.60;78.10;;;;;;5058821;28;19935;-68
2022/04/04 03:21:13;;;;;;;;;;;4.50;78.10;;;;;;5058388;28;19912;-68
2022/04/04 03:23:39;;;;;;;;;;;4.60;78.20;;;;;;5047456;28;20000;-68
2022/04/04 03:26:06;;;;;;;;;;;4.50;78.20;;;;;;5057147;28;19909;-68
2022/04/04 03:28:31;;;;;;;;;;;4.50;78.00;;;;;;5055708;28;19985;-68
2022/04/04 03:30:57;;;;;;;;;;;4.50;78.20;;;;;;5052189;28;20542;-68
2022/04/04 03:33:22;;;;;;;;;;;4.50;78.30;;;;;;5050585;28;19955;-68
2022/04/04 03:35:48;;;;;;;;;;;4.50;78.30;;;;;;5055458;28;19952;-68
2022/04/04 03:38:15;;;;;;;;;;;4.50;78.20;;;;;;5058609;28;19920;-68
2022/04/04 03:40:41;;;;;;;;;;;4.50;78.30;;;;;;5056036;28;19920;-68
2022/04/04 03:43:07;;;;;;;;;;;4.50;78.30;;;;;;5051085;28;20405;-68
2022/04/04 03:45:33;;;;;;;;;;;4.50;78.30;;;;;;5057730;28;19938;-68
2022/04/04 03:47:58;;;;;;;;;;;4.50;78.20;;;;;;4990358;28;1768824;-68
2022/04/04 03:50:25;;;;;;;;;;;4.50;78.30;;;;;;5038928;28;20579;-68
2022/04/04 03:52:55;;;;;;;;;;;4.50;78.30;;;;;;5053437;28;19916;-68
2022/04/04 03:55:25;;;;;;;;;;;4.50;78.50;;;;;;5054802;28;19913;-68
2022/04/04 03:57:51;;;;;;;;;;;4.50;78.30;;;;;;5054025;28;19963;-68
2022/04/04 04:00:17;;;;;;;;;;;4.50;78.50;;;;;;5044449;28;19959;-68
2022/04/04 04:02:43;;;;;;;;;;;4.50;78.40;;;;;;5046125;28;19930;-68
2022/04/04 04:05:08;;;;;;;;;;;4.50;78.40;;;;;;5042961;28;19919;-68
2022/04/04 04:07:34;;;;;;;;;;;4.50;78.40;;;;;;5042405;28;20014;-68
2022/04/04 04:09:59;;;;;;;;;;;4.50;78.50;;;;;;5052827;28;19912;-68
2022/04/04 04:12:25;;;;;;;;;;;4.50;78.40;;;;;;5055325;28;20007;-68
2022/04/04 04:14:51;;;;;;;;;;;4.50;78.40;;;;;;5053617;28;19912;-68
2022/04/04 04:17:26;;;;;;;;;;;4.40;78.50;;;;;;5041664;28;20334;-68
2022/04/04 04:22:36;;;;;;;;;;;4.40;78.40;;;;;;5055426;28;20005;-68
2022/04/04 04:25:02;;;;;;;;;;;4.50;78.50;;;;;;5045287;28;20502;-68
2022/04/04 04:27:28;;;;;;;;;;;4.40;78.50;;;;;;5055396;28;19912;-68
2022/04/04 04:29:54;;;;;;;;;;;4.40;78.40;;;;;;5057386;28;19962;-68
2022/04/04 04:32:20;;;;;;;;;;;4.50;78.50;;;;;;5048389;28;20414;-68
2022/04/04 04:34:48;;;;;;;;;;;4.40;78.40;;;;;;5053603;28;20076;-68
2022/04/04 04:37:15;;;;;;;;;;;4.50;78.60;;;;;;5058125;28;19989;-68
2022/04/04 04:39:40;;;;;;;;;;;4.40;78.40;;;;;;5051912;28;19921;-68
2022/04/04 04:42:06;;;;;;;;;;;4.50;78.40;;;;;;5052135;28;20644;-68
2022/04/04 04:44:32;;;;;;;;;;;4.40;78.40;;;;;;5053242;28;20007;-68
2022/04/04 04:46:57;;;;;;;;;;;4.40;78.40;;;;;;5053372;28;19909;-68
2022/04/04 04:49:25;;;;;;;;;;;4.40;78.40;;;;;;5057217;28;19917;-68
2022/04/04 04:51:52;;;;;;;;;;;4.40;78.40;;;;;;5052402;28;19963;-68
2022/04/04 04:54:17;;;;;;;;;;;4.40;78.40;;;;;;5052537;28;19959;-68
2022/04/04 04:56:43;;;;;;;;;;;4.40;78.60;;;;;;5053543;28;20349;-68
2022/04/04 04:59:09;;;;;;;;;;;4.40;78.60;;;;;;5056195;28;19916;-68
2022/04/04 05:01:35;;;;;;;;;;;4.40;78.60;;;;;;5055841;28;19915;-68
2022/04/04 05:04:01;;;;;;;;;;;4.40;78.50;;;;;;5051216;28;20175;-68
2022/04/04 05:06:26;;;;;;;;;;;4.40;78.50;;;;;;5049262;28;20716;-68
2022/04/04 05:08:52;;;;;;;;;;;4.40;78.40;;;;;;5052330;28;20554;-68
2022/04/04 05:11:17;;;;;;;;;;;4.40;78.40;;;;;;5055659;28;19920;-68
2022/04/04 05:13:43;;;;;;;;;;;4.40;78.60;;;;;;5051498;28;19915;-68
2022/04/04 05:16:10;;;;;;;;;;;4.40;78.60;;;;;;5050303;28;19939;-68
2022/04/04 05:18:36;;;;;;;;;;;4.40;78.60;;;;;;5054819;28;19912;-68
2022/04/04 05:21:03;;;;;;;;;;;4.40;78.60;;;;;;5053339;28;20027;-68
2022/04/04 05:23:29;;;;;;;;;;;4.40;78.50;;;;;;5051719;28;19913;-68
2022/04/04 05:25:54;;;;;;;;;;;4.40;78.40;;;;;;5050431;28;19909;-68
2022/04/04 05:28:20;;;;;;;;;;;4.40;78.50;;;;;;5054731;28;19999;-68
2022/04/04 05:30:46;;;;;;;;;;;4.40;78.60;;;;;;5056077;28;19916;-69
2022/04/04 05:33:11;;;;;;;;;;;4.40;78.30;;;;;;5053130;28;20002;-68
2022/04/04 05:35:37;;;;;;;;;;;4.40;78.60;;;;;;5052818;28;20463;-68
2022/04/04 05:38:02;;;;;;;;;;;4.40;78.30;;;;;;5052007;28;19917;-68
2022/04/04 05:40:28;;;;;;;;;;;4.40;78.40;;;;;;5049854;28;19943;-68
2022/04/04 05:42:55;;;;;;;;;;;4.40;78.40;;;;;;5051629;28;19951;-68
2022/04/04 05:45:21;;;;;;;;;;;4.40;78.30;;;;;;5050334;28;19960;-68
2022/04/04 05:47:46;;;;;;;;;;;4.40;78.40;;;;;;5050194;28;19928;-68
2022/04/04 05:50:12;;;;;;;;;;;4.40;78.40;;;;;;5056175;28;19913;-68
2022/04/04 05:52:37;;;;;;;;;;;4.40;78.30;;;;;;5044401;28;19909;-68
2022/04/04 05:55:03;;;;;;;;;;;4.40;78.30;;;;;;5050690;28;20356;-68
2022/04/04 05:57:30;;;;;;;;;;;4.40;78.30;;;;;;5055248;28;19913;-68
2022/04/04 05:59:56;;;;;;;;;;;4.40;78.30;;;;;;5055225;28;19948;-68
2022/04/04 06:02:22;;;;;;;;;;;4.50;78.30;;;;;;5052881;28;19971;-68
2022/04/04 06:04:48;;;;;;;;;;;4.50;78.20;;;;;;5051744;28;19920;-68
2022/04/04 06:07:14;;;;;;;;;;;4.50;78.20;;;;;;5049774;28;19978;-68
2022/04/04 06:09:39;;;;;;;;;;;4.50;78.30;;;;;;5052442;28;20388;-68
2022/04/04 06:12:05;;;;;;;;;;;4.50;78.10;;;;;;5050447;28;19960;-68
2022/04/04 06:14:30;;;;;;;;;;;4.50;78.10;;;;;;5055758;28;19924;-68
2022/04/04 06:16:56;;;;;;;;;;;4.50;78.10;;;;;;5049574;28;19920;-68
2022/04/04 06:19:21;;;;;;;;;;;4.50;78.10;;;;;;5054514;28;19969;-68
2022/04/04 06:21:47;;;;;;;;;;;4.60;78.10;;;;;;5054335;28;19913;-68
2022/04/04 06:24:13;;;;;;;;;;;4.60;78.00;;;;;;5051372;28;19909;-68
2022/04/04 06:26:39;;;;;;;;;;;4.60;78.00;;;;;;5052358;28;20071;-68
2022/04/04 06:29:09;;;;;;;;;;;4.60;78.00;;;;;;5054625;28;20038;-68
2022/04/04 06:31:35;;;;;;;;;;;4.60;78.00;;;;;;5070096;28;19912;-69
2022/04/04 06:34:00;;;;;;;;;;;4.60;77.90;;;;;;5049579;28;19916;-68
2022/04/04 06:36:26;;;;;;;;;;;4.70;77.90;;;;;;5050672;28;19913;-68
2022/04/04 06:38:52;;;;;;;;;;;4.70;77.70;;;;;;5049091;28;19927;-68
2022/04/04 06:41:19;;;;;;;;;;;4.80;77.80;;;;;;5052151;28;19909;-68
2022/04/04 06:43:45;;;;;;;;;;;4.70;77.80;;;;;;5056169;28;19912;-68
2022/04/04 06:46:13;;;;;;;;;;;4.70;77.90;;;;;;5054499;28;20410;-68
2022/04/04 06:48:39;;;;;;;;;;;4.70;77.80;;;;;;5056244;28;19986;-68
2022/04/04 06:51:05;;;;;;;;;;;4.80;77.80;;;;;;5055721;28;20565;-68
2022/04/04 06:53:31;;;;;;;;;;;4.80;77.70;;;;;;5043431;28;19916;-68
2022/04/04 06:55:56;;;;;;;;;;;4.80;77.70;;;;;;5057625;28;19913;-68
2022/04/04 06:58:22;;;;;;;;;;;4.90;77.60;;;;;;5054454;28;19917;-68
2022/04/04 07:00:48;;;;;;;;;;;4.90;77.70;;;;;;5062377;28;19913;-68
2022/04/04 07:03:13;;;;;;;;;;;4.90;77.60;;;;;;5052243;28;19916;-68
2022/04/04 07:05:40;;;;;;;;;;;4.90;77.60;;;;;;5056332;28;19940;-68
2022/04/04 07:08:06;;;;;;;;;;;5.00;77.30;;;;;;5058633;28;19923;-68
2022/04/04 07:10:32;;;;;;;;;;;5.00;77.40;;;;;;5046398;28;19923;-68
2022/04/04 07:12:58;;;;;;;;;;;5.10;77.10;;;;;;5055106;28;20082;-68
2022/04/04 07:15:24;;;;;;;;;;;5.10;77.10;;;;;;5056765;28;20340;-68
2022/04/04 07:17:50;;;;;;;;;;;5.10;77.20;;;;;;5053617;28;19944;-68
2022/04/04 07:20:15;;;;;;;;;;;5.20;77.10;;;;;;5059315;28;19959;-68
2022/04/04 07:22:41;;;;;;;;;;;5.20;77.10;;;;;;5056916;28;19964;-68
2022/04/04 07:25:08;;;;;;;;;;;5.30;77.20;;;;;;5056296;28;19939;-68
2022/04/04 07:27:34;;;;;;;;;;;5.30;77.10;;;;;;5054964;28;19916;-68
2022/04/04 07:29:59;;;;;;;;;;;5.30;76.90;;;;;;5059329;28;19913;-68
2022/04/04 07:32:25;;;;;;;;;;;5.40;77.00;;;;;;5054512;28;19920;-68
2022/04/04 07:34:50;;;;;;;;;;;5.40;77.10;;;;;;5052136;28;19923;-68
2022/04/04 07:37:16;;;;;;;;;;;5.40;77.00;;;;;;5051423;28;20381;-68
2022/04/04 07:39:41;;;;;;;;;;;5.50;77.20;;;;;;5058391;28;19917;-68
2022/04/04 07:42:08;;;;;;;;;;;5.50;77.10;;;;;;5051705;28;19991;-68
2022/04/04 07:44:34;;;;;;;;;;;5.50;77.10;;;;;;5053083;28;19944;-68
2022/04/04 07:47:00;;;;;;;;;;;5.50;77.40;;;;;;5052258;28;19912;-68
2022/04/04 07:49:26;;;;;;;;;;;5.50;77.10;;;;;;5040434;28;19923;-68
2022/04/04 07:51:51;;;;;;;;;;;5.60;77.10;;;;;;5053595;28;19924;-68
2022/04/04 07:54:17;;;;;;;;;;;5.70;76.90;;;;;;5050929;28;20621;-68
2022/04/04 07:56:43;;;;;;;;;;;5.70;76.80;;;;;;5047216;28;20395;-68
2022/04/04 07:59:09;;;;;;;;;;;5.70;76.60;;;;;;5046746;28;20030;-68
2022/04/04 08:01:35;;;;;;;;;;;5.80;76.60;;;;;;5052425;28;19913;-68
2022/04/04 08:04:00;;;;;;;;;;;5.80;76.70;;;;;;5037581;28;19917;-68
2022/04/04 08:06:26;;;;;;;;;;;5.90;76.60;;;;;;5055228;28;20057;-68
2022/04/04 08:08:51;;;;;;;;;;;6.00;76.70;;;;;;5052244;28;19916;-68
2022/04/04 08:11:17;;;;;;;;;;;5.90;76.60;;;;;;5050897;28;20013;-68
2022/04/04 08:13:44;;;;;;;;;;;6.00;76.60;;;;;;5057144;28;19971;-68
2022/04/04 08:16:09;;;;;;;;;;;6.00;76.50;;;;;;5053051;28;19994;-68
2022/04/04 08:18:35;;;;;;;;;;;6.00;76.50;;;;;;5052501;28;19912;-68
2022/04/04 08:21:01;;;;;;;;;;;6.10;76.50;;;;;;5058151;28;19939;-68
2022/04/04 08:23:29;;;;;;;;;;;6.10;76.50;;;;;;5047434;28;19912;-68
2022/04/04 08:25:56;;;;;;;;;;;6.20;76.30;;;;;;5045728;28;19913;-68
2022/04/04 08:28:22;;;;;;;;;;;6.30;76.40;;;;;;5056349;28;19923;-68
2022/04/04 08:30:47;;;;;;;;;;;6.30;76.30;;;;;;5044876;28;20277;-68
2022/04/04 08:33:13;;;;;;;;;;;6.30;76.10;;;;;;5044155;28;19919;-68
2022/04/04 08:35:38;;;;;;;;;;;6.40;76.10;;;;;;5055428;28;19931;-68
2022/04/04 08:38:04;;;;;;;;;;;6.40;75.90;;;;;;5054572;28;19920;-68
2022/04/04 08:40:30;;;;;;;;;;;6.50;75.90;;;;;;5055026;28;20328;-68
2022/04/04 08:42:56;;;;;;;;;;;6.50;75.70;;;;;;5050452;28;20356;-68
2022/04/04 08:45:22;;;;;;;;;;;6.60;75.60;;;;;;5048065;28;19924;-68
2022/04/04 08:47:48;;;;;;;;;;;6.60;76.10;;;;;;5053695;28;19920;-68
2022/04/04 08:50:14;;;;;;;;;;;6.60;75.40;;;;;;5060029;28;19977;-68
2022/04/04 08:52:40;;;;;;;;;;;6.70;75.30;;;;;;5050269;28;19920;-68
2022/04/04 08:55:06;;;;;;;;;;;6.70;75.40;;;;;;5042093;28;20611;-68
2022/04/04 08:57:31;;;;;;;;;;;6.70;75.30;;;;;;5056064;28;20499;-68
2022/04/04 08:59:57;;;;;;;;;;;6.70;75.30;;;;;;5040697;28;19916;-67
2022/04/04 09:02:22;;;;;;;;;;;6.70;75.30;;;;;;5054496;28;19913;-68
2022/04/04 09:04:51;;;;;;;;;;;6.80;75.30;;;;;;5054783;28;19919;-68
2022/04/04 09:07:18;;;;;;;;;;;6.80;75.40;;;;;;5051838;28;19967;-67
2022/04/04 09:09:45;;;;;;;;;;;6.80;75.10;;;;;;5053960;28;19918;-68
2022/04/04 09:12:11;;;;;;;;;;;6.90;75.20;;;;;;5044937;28;19912;-68
2022/04/04 09:14:41;;;;;;;;;;;6.90;75.30;;;;;;5056194;28;19912;-68
2022/04/04 09:17:08;;;;;;;;;;;6.90;75.20;;;;;;5045982;28;19919;-68
2022/04/04 09:19:33;;;;;;;;;;;6.90;75.20;;;;;;5055175;28;20069;-68
2022/04/04 09:22:06;;;;;;;;;;;6.90;75.20;;;;;;5055248;28;19998;-68
2022/04/04 09:24:41;;;;;;;;;;;6.90;75.20;;;;;;5050944;28;19917;-68
2022/04/04 09:27:18;;;;;;;;;;;6.90;75.40;;;;;;5048172;28;19912;-68
2022/04/04 09:29:44;;;;;;;;;;;6.90;75.40;;;;;;5060046;28;20019;-68
2022/04/04 09:32:12;;;;;;;;;;;7.00;75.40;;;;;;5058591;28;20609;-68
2022/04/04 09:34:49;;;;;;;;;;;7.00;75.40;;;;;;5048886;28;19920;-68
2022/04/04 09:37:15;;;;;;;;;;;7.00;75.40;;;;;;5051657;28;19912;-68
2022/04/04 09:39:41;;;;;;;;;;;7.00;75.40;;;;;;5056711;28;19998;-68
2022/04/04 09:42:13;;;;;;;;;;;7.00;75.50;;;;;;5050730;28;19916;-68
2022/04/04 09:44:38;;;;;;;;;;;7.00;75.50;;;;;;5049697;28;19913;-68
2022/04/04 09:47:04;;;;;;;;;;;7.00;75.70;;;;;;5055264;28;20355;-68
2022/04/04 09:49:37;;;;;;;;;;;7.00;75.70;;;;;;5057025;28;19912;-68
2022/04/04 09:52:03;;;;;;;;;;;7.00;75.80;;;;;;5048763;28;20011;-68
2022/04/04 09:54:29;;;;;;;;;;;7.10;75.90;;;;;;5049918;28;20019;-68
2022/04/04 09:57:08;;;;;;;;;;;7.10;76.00;;;;;;5056630;28;19940;-68
2022/04/04 09:59:36;;;;;;;;;;;7.10;76.10;;;;;;5053097;28;19967;-68
2022/04/04 10:02:02;;;;;;;;;;;7.10;76.20;;;;;;5054139;28;19923;-68
2022/04/04 10:04:28;;;;;;;;;;;7.10;76.10;;;;;;5046289;28;19912;-68
2022/04/04 10:06:54;;;;;;;;;;;7.10;76.30;;;;;;5053799;28;19913;-69
2022/04/04 10:09:19;;;;;;;;;;;7.10;76.40;;;;;;5046984;28;19919;-68
2022/04/04 10:11:45;;;;;;;;;;;7.20;76.40;;;;;;5056577;28;20360;-68
2022/04/04 10:14:14;;;;;;;;;;;7.20;76.60;;;;;;5059251;28;19908;-68
2022/04/04 10:16:40;;;;;;;;;;;7.10;76.80;;;;;;5051409;28;19930;-69
2022/04/04 10:19:06;;;;;;;;;;;7.20;76.60;;;;;;5059095;28;20537;-69
2022/04/04 10:21:32;;;;;;;;;;;7.20;76.60;;;;;;5057542;28;20009;-68
2022/04/04 10:23:58;;;;;;;;;;;7.20;76.70;;;;;;5055498;28;19974;-68
2022/04/04 10:26:28;;;;;;;;;;;7.20;76.90;;;;;;5052037;28;19912;-68
2022/04/04 10:29:06;;;;;;;;;;;7.20;76.90;;;;;;5059844;28;19973;-68
2022/04/04 10:31:40;;;;;;;;;;;7.20;77.00;;;;;;5048907;28;20745;-69
2022/04/04 10:34:10;;;;;;;;;;;7.20;76.90;;;;;;5055652;28;20691;-68
2022/04/04 10:36:36;;;;;;;;;;;7.20;76.90;;;;;;5047879;28;19996;-67
2022/04/04 10:39:01;;;;;;;;;;;7.20;77.00;;;;;;5059906;28;19956;-68
2022/04/04 10:41:28;;;;;;;;;;;7.20;77.30;;;;;;5055165;28;19919;-68
2022/04/04 10:43:54;;;;;;;;;;;7.20;77.60;;;;;;5051401;28;19955;-68
2022/04/04 10:46:21;;;;;;;;;;;7.20;77.70;;;;;;5060427;28;19909;-69
2022/04/04 10:48:48;;;;;;;;;;;7.20;77.60;;;;;;5063180;28;19925;-69
2022/04/04 10:51:17;;;;;;;;;;;7.20;77.90;;;;;;5052315;28;20051;-68
2022/04/04 10:53:49;;;;;;;;;;;7.10;78.10;;;;;;5054622;28;19913;-68
2022/04/04 10:56:17;;;;;;;;;;;7.10;78.10;;;;;;5056569;28;19919;-69
2022/04/04 10:58:42;;;;;;;;;;;7.10;78.20;;;;;;5049059;28;19952;-68
2022/04/04 11:01:14;;;;;;;;;;;7.10;78.30;;;;;;5057280;28;19968;-68
2022/04/04 11:03:39;;;;;;;;;;;7.10;78.80;;;;;;5047732;28;19913;-68
2022/04/04 11:09:12;;;;;;;;;;;7.00;78.90;;;;;;5057194;28;20503;-68
2022/04/04 11:11:54;;;;;;;;;;;7.00;79.00;;;;;;5046397;28;19920;-68
2022/04/04 11:14:28;;;;;;;;;;;7.00;79.10;;;;;;5063276;28;19939;-68
2022/04/04 11:17:06;;;;;;;;;;;7.00;79.40;;;;;;5050355;28;20438;-68
2022/04/04 11:19:51;;;;;;;;;;;7.00;79.20;;;;;;5065745;28;19921;-68
2022/04/04 11:22:21;;;;;;;;;;;7.00;79.50;;;;;;5059887;28;20448;-68
2022/04/04 11:25:03;;;;;;;;;;;6.90;79.50;;;;;;5052080;28;20393;-68
2022/04/04 11:27:28;;;;;;;;;;;6.90;79.80;;;;;;5052197;28;20003;-68
2022/04/04 11:29:54;;;;;;;;;;;6.90;80.10;;;;;;5062137;28;20451;-68
2022/04/04 11:32:24;;;;;;;;;;;6.90;80.10;;;;;;5061856;28;19963;-69
2022/04/04 11:34:50;;;;;;;;;;;6.90;80.50;;;;;;5055177;28;19919;-68
2022/04/04 11:37:19;;;;;;;;;;;6.90;80.30;;;;;;5057472;28;19919;-68
2022/04/04 11:39:46;;;;;;;;;;;6.90;80.60;;;;;;5060372;28;19939;-68
2022/04/04 11:42:11;;;;;;;;;;;6.90;80.70;;;;;;5053858;28;20636;-68
2022/04/04 11:44:44;;;;;;;;;;;6.90;80.80;;;;;;5056077;28;19909;-68
2022/04/04 11:47:10;;;;;;;;;;;6.90;80.90;;;;;;5060562;28;19909;-68
2022/04/04 11:49:37;;;;;;;;;;;6.90;80.90;;;;;;5045509;28;19916;-68
2022/04/04 11:52:06;;;;;;;;;;;6.90;80.80;;;;;;5050858;28;19913;-68
2022/04/04 11:54:39;;;;;;;;;;;6.90;81.00;;;;;;5056296;28;20001;-68
2022/04/04 11:57:05;;;;;;;;;;;6.80;81.20;;;;;;5044144;28;20273;-68
2022/04/04 11:59:33;;;;;;;;;;;6.80;81.30;;;;;;5056587;28;19920;-68
2022/04/04 12:01:58;;;;;;;;;;;6.80;81.30;;;;;;5058240;28;19924;-68
2022/04/04 12:04:25;;;;;;;;;;;6.80;81.60;;;;;;5059735;28;20281;-68
2022/04/04 12:06:51;;;;;;;;;;;6.90;81.60;;;;;;5061568;28;20365;-68
2022/04/04 12:09:26;;;;;;;;;;;6.80;81.40;;;;;;5044285;28;19924;-68
2022/04/04 12:11:59;;;;;;;;;;;6.90;81.80;;;;;;5057897;28;19916;-68
2022/04/04 12:14:30;;;;;;;;;;;6.80;81.90;;;;;;5048005;28;19916;-68
2022/04/04 12:16:56;;;;;;;;;;;6.80;82.00;;;;;;5053502;28;19913;-68
2022/04/04 12:19:22;;;;;;;;;;;6.80;82.00;;;;;;5060329;28;20003;-68
2022/04/04 12:21:47;;;;;;;;;;;6.80;82.30;;;;;;5043086;28;19995;-68
2022/04/04 12:27:08;;;;;;;;;;;6.80;82.00;;;;;;5056935;28;19915;-68
2022/04/04 12:29:43;;;;;;;;;;;6.80;82.20;;;;;;5060256;28;20418;-68
2022/04/04 12:32:16;;;;;;;;;;;6.80;82.60;;;;;;5058207;28;20448;-68
2022/04/04 12:34:53;;;;;;;;;;;6.80;82.60;;;;;;5051848;28;19923;-68
2022/04/04 12:37:19;;;;;;;;;;;6.80;83.20;;;;;;5057905;28;19945;-68
2022/04/04 12:39:47;;;;;;;;;;;6.80;82.70;;;;;;5060522;28;20006;-68
2022/04/04 12:42:13;;;;;;;;;;;6.70;82.60;;;;;;5056123;28;19913;-68
2022/04/04 12:44:38;;;;;;;;;;;6.70;83.00;;;;;;5055634;28;19919;-68
2022/04/04 12:47:04;;;;;;;;;;;6.70;82.90;;;;;;5060033;28;19913;-68
2022/04/04 12:49:30;;;;;;;;;;;6.70;82.60;;;;;;5043838;28;19983;-68
2022/04/04 12:52:00;;;;;;;;;;;6.70;82.80;;;;;;5051159;28;19912;-68
2022/04/04 12:54:28;;;;;;;;;;;6.70;83.00;;;;;;5056514;28;19961;-68
2022/04/04 12:56:54;;;;;;;;;;;6.70;82.90;;;;;;5059945;28;20380;-68
2022/04/04 12:59:20;;;;;;;;;;;6.70;83.20;;;;;;5061605;28;19987;-68
2022/04/04 13:02:05;;;;;;;;;;;6.70;83.20;;;;;;5045428;28;20458;-68
2022/04/04 13:04:32;;;;;;;;;;;6.70;83.00;;;;;;5060156;28;20269;-68
2022/04/04 13:07:00;;;;;;;;;;;6.70;83.40;;;;;;5042895;28;19982;-68
2022/04/04 13:09:26;;;;;;;;;;;6.70;83.80;;;;;;5050960;28;19937;-68
2022/04/04 13:11:53;;;;;;;;;;;6.70;83.40;;;;;;5058688;28;19916;-68
2022/04/04 13:14:18;;;;;;;;;;;6.70;83.70;;;;;;5059078;28;19912;-68
2022/04/04 13:17:02;;;;;;;;;;;6.60;83.40;;;;;;5052814;28;20269;-68
2022/04/04 13:19:28;;;;;;;;;;;6.60;83.70;;;;;;5056148;28;19917;-68
2022/04/04 13:21:54;;;;;;;;;;;6.60;83.60;;;;;;5060159;28;19913;-68
2022/04/04 13:24:20;;;;;;;;;;;6.60;83.70;;;;;;5064225;28;19916;-68
2022/04/04 13:26:47;;;;;;;;;;;6.60;83.70;;;;;;5055077;28;19912;-68
2022/04/04 13:29:13;;;;;;;;;;;6.60;84.50;;;;;;5056409;28;19920;-69
2022/04/04 13:31:39;;;;;;;;;;;6.60;84.30;;;;;;5060595;28;19912;-69
2022/04/04 13:34:06;;;;;;;;;;;6.60;83.80;;;;;;5054551;28;19958;-68
2022/04/04 13:36:31;;;;;;;;;;;6.60;84.20;;;;;;5057001;28;20404;-68
2022/04/04 13:38:58;;;;;;;;;;;6.50;84.20;;;;;;5063046;28;19913;-68
2022/04/04 13:41:26;;;;;;;;;;;6.60;84.30;;;;;;5059420;28;19916;-68
2022/04/04 13:43:52;;;;;;;;;;;6.50;84.20;;;;;;5060469;28;19924;-68
2022/04/04 13:46:18;;;;;;;;;;;6.50;84.40;;;;;;5058139;28;19916;-68
2022/04/04 13:48:44;;;;;;;;;;;6.50;84.20;;;;;;5061183;28;19925;-68
2022/04/04 13:51:09;;;;;;;;;;;6.50;84.00;;;;;;5058607;28;20274;-68
2022/04/04 13:53:35;;;;;;;;;;;6.50;84.70;;;;;;5058956;28;19909;-68
2022/04/04 13:56:01;;;;;;;;;;;6.50;84.50;;;;;;5046686;28;19987;-68
2022/04/04 13:58:27;;;;;;;;;;;6.50;84.70;;;;;;5046878;28;20428;-68
2022/04/04 14:00:52;;;;;;;;;;;6.50;84.20;;;;;;5064132;28;20003;-68
2022/04/04 14:03:18;;;;;;;;;;;6.50;84.40;;;;;;5061424;28;19913;-68
2022/04/04 14:05:43;;;;;;;;;;;6.50;84.40;;;;;;5064577;28;19909;-68
2022/04/04 14:08:12;;;;;;;;;;;6.40;84.50;;;;;;5057989;28;19920;-68
2022/04/04 14:10:39;;;;;;;;;;;6.40;84.40;;;;;;5056099;28;19912;-68
2022/04/04 14:13:05;;;;;;;;;;;6.40;84.50;;;;;;5061374;28;19962;-68
2022/04/04 14:15:30;;;;;;;;;;;6.40;84.70;;;;;;5060544;28;19916;-68
2022/04/04 14:17:56;;;;;;;;;;;6.40;84.30;;;;;;5057709;28;19913;-68
2022/04/04 14:20:21;;;;;;;;;;;6.40;84.70;;;;;;5063079;28;20327;-68
2022/04/04 14:22:49;;;;;;;;;;;6.50;84.90;;;;;;5064085;28;19943;-68
2022/04/04 14:25:14;;;;;;;;;;;6.40;84.90;;;;;;5055904;28;19913;-68
2022/04/04 14:27:40;;;;;;;;;;;6.40;85.00;;;;;;5058784;28;19916;-68
2022/04/04 14:30:07;;;;;;;;;;;6.40;85.10;;;;;;5063337;28;19913;-68
2022/04/04 14:32:33;;;;;;;;;;;6.40;85.30;;;;;;5054848;28;19970;-68
2022/04/04 14:34:59;;;;;;;;;;;6.40;84.70;;;;;;5052212;28;19913;-68
2022/04/04 14:37:24;;;;;;;;;;;6.40;85.40;;;;;;5057490;28;19916;-68